Time;durP1;ratioP1;P1;durP2;ratioP2;P2;SDS_P1;SDS_P2;PMS_P1;PMS_P2;Temp;Humidity;BMP_temperature;BMP_pressure;BME280_temperature;BME280_humidity;BME280_pressure;Samples;Min_cycle;Max_cycle;Signal;HPM_P1;HPM_P2
2024/02/23 00:01:11;;;;;;;0.50;0.50;;;4.20;99.90;;;;;;5043486;28;20144;-77
2024/02/23 00:03:39;;;;;;;1.23;0.77;;;4.20;99.90;;;;;;5041740;28;20053;-77
2024/02/23 00:06:06;;;;;;;1.00;0.65;;;4.20;99.90;;;;;;5024557;28;20045;-77
2024/02/23 00:08:33;;;;;;;1.17;0.70;;;4.20;99.90;;;;;;5044013;28;20136;-77
2024/02/23 00:11:00;;;;;;;2.15;0.80;;;4.10;99.90;;;;;;5040686;28;20053;-77
2024/02/23 00:13:27;;;;;;;0.43;0.40;;;4.20;99.90;;;;;;5041778;28;20526;-77
2024/02/23 00:15:54;;;;;;;0.57;0.57;;;4.20;99.90;;;;;;5042862;28;20048;-76
2024/02/23 00:18:20;;;;;;;0.57;0.40;;;4.20;99.90;;;;;;5043161;28;20048;-76
2024/02/23 00:20:48;;;;;;;1.02;0.47;;;4.20;99.90;;;;;;5022324;28;20045;-77
2024/02/23 00:23:15;;;;;;;0.50;0.50;;;4.20;99.90;;;;;;5022319;28;20455;-77
2024/02/23 00:25:42;;;;;;;2.30;0.52;;;4.20;99.90;;;;;;5038767;28;20053;-77
2024/02/23 00:28:08;;;;;;;1.70;0.65;;;4.20;99.90;;;;;;5024563;28;20060;-77
2024/02/23 00:30:35;;;;;;;1.25;0.65;;;4.20;99.90;;;;;;5025438;28;20442;-77
2024/02/23 00:33:03;;;;;;;0.73;0.50;;;4.30;99.90;;;;;;5025020;28;20508;-77
2024/02/23 00:35:31;;;;;;;1.40;0.60;;;4.30;99.90;;;;;;5042778;28;20569;-77
2024/02/23 00:37:58;;;;;;;2.75;0.88;;;4.30;99.90;;;;;;5005355;28;20063;-77
2024/02/23 00:40:25;;;;;;;0.85;0.70;;;4.30;99.90;;;;;;5032760;28;20052;-77
2024/02/23 00:42:52;;;;;;;1.10;0.50;;;4.30;99.90;;;;;;5024401;28;20407;-77
2024/02/23 00:45:19;;;;;;;0.55;0.55;;;4.30;99.90;;;;;;5041311;28;20098;-77
2024/02/23 00:47:47;;;;;;;1.13;0.60;;;4.40;99.90;;;;;;5041243;28;20607;-77
2024/02/23 00:50:15;;;;;;;0.55;0.55;;;4.30;99.90;;;;;;5024772;28;20132;-77
2024/02/23 00:52:42;;;;;;;1.15;0.98;;;4.40;99.90;;;;;;5024335;28;20867;-77
2024/02/23 00:55:08;;;;;;;0.65;0.55;;;4.40;99.90;;;;;;5040639;28;20048;-77
2024/02/23 00:57:36;;;;;;;0.43;0.40;;;4.40;99.90;;;;;;5024552;28;20169;-77
2024/02/23 01:00:05;;;;;;;0.80;0.60;;;4.40;99.90;;;;;;5029468;28;20057;-81
2024/02/23 01:02:33;;;;;;;0.40;0.40;;;4.30;99.90;;;;;;5039975;28;20053;-77
2024/02/23 01:05:00;;;;;;;0.70;0.52;;;4.40;99.90;;;;;;5040093;28;20049;-77
2024/02/23 01:07:27;;;;;;;1.33;0.60;;;4.40;99.90;;;;;;5039708;28;20424;-77
2024/02/23 01:09:54;;;;;;;0.73;0.65;;;4.30;99.90;;;;;;5020764;28;20064;-78
2024/02/23 01:12:21;;;;;;;0.43;0.32;;;4.30;99.90;;;;;;5018698;28;20056;-77
2024/02/23 01:14:48;;;;;;;0.50;0.50;;;4.30;99.90;;;;;;5030906;28;20052;-77
2024/02/23 01:17:15;;;;;;;0.50;0.50;;;4.30;99.90;;;;;;5024421;28;20185;-77
2024/02/23 01:19:43;;;;;;;0.60;0.50;;;4.20;99.90;;;;;;5017215;28;20462;-77
2024/02/23 01:22:10;;;;;;;0.95;0.60;;;4.20;99.90;;;;;;5007996;28;20045;-77
2024/02/23 01:24:38;;;;;;;0.93;0.60;;;4.20;99.90;;;;;;5024218;28;20153;-77
2024/02/23 01:27:04;;;;;;;0.82;0.65;;;4.20;99.90;;;;;;5019537;28;20928;-77
2024/02/23 01:29:31;;;;;;;0.57;0.57;;;4.20;99.90;;;;;;4988984;28;20068;-77
2024/02/23 01:31:58;;;;;;;2.00;0.75;;;4.20;99.90;;;;;;5020107;28;20075;-77
2024/02/23 01:34:25;;;;;;;0.60;0.60;;;4.30;99.90;;;;;;5038407;28;20132;-78
2024/02/23 01:36:52;;;;;;;1.38;0.70;;;4.30;99.90;;;;;;5019104;28;20049;-78
2024/02/23 01:39:19;;;;;;;0.40;0.40;;;4.30;99.90;;;;;;5039600;28;20139;-77
2024/02/23 01:41:46;;;;;;;0.50;0.40;;;4.30;99.90;;;;;;5039329;28;20052;-77
2024/02/23 01:44:15;;;;;;;1.30;0.60;;;4.30;99.90;;;;;;5040612;28;20053;-78
2024/02/23 01:46:42;;;;;;;1.08;0.50;;;4.30;99.90;;;;;;5040169;28;20406;-78
2024/02/23 01:49:08;;;;;;;0.47;0.40;;;4.30;99.90;;;;;;5023438;28;20076;-77
2024/02/23 01:51:35;;;;;;;1.92;0.50;;;4.30;99.90;;;;;;5023315;28;20132;-77
2024/02/23 01:54:03;;;;;;;0.50;0.43;;;4.40;99.90;;;;;;5040370;28;20060;-78
2024/02/23 01:56:31;;;;;;;0.80;0.60;;;4.40;99.90;;;;;;5018797;28;20045;-77
2024/02/23 01:58:58;;;;;;;0.65;0.60;;;4.40;99.90;;;;;;5019987;28;20103;-77
2024/02/23 02:01:25;;;;;;;1.33;0.50;;;4.50;99.90;;;;;;5019892;28;20513;-77
2024/02/23 02:03:52;;;;;;;0.80;0.68;;;4.50;99.90;;;;;;5038803;28;20049;-77
2024/02/23 02:06:19;;;;;;;0.70;0.70;;;4.60;99.90;;;;;;5023237;28;20049;-77
2024/02/23 02:08:46;;;;;;;0.57;0.57;;;4.60;99.90;;;;;;5040288;28;20059;-77
2024/02/23 02:11:13;;;;;;;0.88;0.50;;;4.60;99.90;;;;;;5039150;28;20146;-77
2024/02/23 02:13:41;;;;;;;0.80;0.50;;;4.60;99.90;;;;;;5041063;28;20049;-77
2024/02/23 02:16:07;;;;;;;0.57;0.30;;;4.60;99.90;;;;;;5039640;28;20511;-77
2024/02/23 02:18:34;;;;;;;0.40;0.40;;;4.60;99.90;;;;;;5039616;28;20522;-77
2024/02/23 02:21:01;;;;;;;0.75;0.50;;;4.70;99.90;;;;;;5019867;28;20049;-77
2024/02/23 02:23:28;;;;;;;0.35;0.30;;;4.70;99.90;;;;;;5021129;28;20053;-77
2024/02/23 02:25:56;;;;;;;1.05;0.50;;;4.70;99.90;;;;;;5037374;28;20454;-77
2024/02/23 02:28:23;;;;;;;0.55;0.40;;;4.80;99.90;;;;;;5039119;28;20053;-77
2024/02/23 02:30:51;;;;;;;0.45;0.45;;;4.80;99.90;;;;;;5035152;28;20805;-78
2024/02/23 02:33:18;;;;;;;0.52;0.40;;;4.80;99.90;;;;;;5030137;28;20053;-77
2024/02/23 02:35:45;;;;;;;0.35;0.35;;;4.80;99.90;;;;;;5024731;28;20700;-77
2024/02/23 02:38:11;;;;;;;1.20;0.75;;;4.80;99.90;;;;;;5026534;28;20076;-77
2024/02/23 02:40:38;;;;;;;0.40;0.40;;;4.80;99.90;;;;;;5033485;28;20739;-77
2024/02/23 02:43:05;;;;;;;1.48;0.70;;;4.80;99.90;;;;;;5040576;28;20053;-77
2024/02/23 02:45:32;;;;;;;1.35;0.60;;;4.80;99.90;;;;;;5041133;28;20045;-77
2024/02/23 02:48:03;;;;;;;1.27;0.65;;;4.80;99.90;;;;;;5041159;28;20060;-77
2024/02/23 02:50:30;;;;;;;0.82;0.50;;;4.80;99.90;;;;;;5033520;28;20156;-77
2024/02/23 02:52:57;;;;;;;0.65;0.50;;;4.80;99.90;;;;;;5034272;28;20103;-77
2024/02/23 02:55:24;;;;;;;2.03;0.70;;;4.80;99.90;;;;;;5028213;28;20085;-77
2024/02/23 02:57:51;;;;;;;0.43;0.43;;;4.80;99.90;;;;;;5045691;28;20135;-77
2024/02/23 03:00:18;;;;;;;0.82;0.38;;;4.80;99.90;;;;;;5046500;28;20056;-77
2024/02/23 03:02:45;;;;;;;0.85;0.45;;;4.80;99.90;;;;;;5044819;28;20064;-77
2024/02/23 03:05:11;;;;;;;0.50;0.50;;;4.90;99.90;;;;;;5028790;28;20087;-77
2024/02/23 03:07:38;;;;;;;1.40;0.40;;;5.00;99.90;;;;;;5045073;28;20084;-77
2024/02/23 03:10:07;;;;;;;0.77;0.60;;;5.10;99.90;;;;;;5042407;28;20052;-77
2024/02/23 03:12:34;;;;;;;1.38;0.73;;;5.20;99.90;;;;;;5026351;28;20186;-78
2024/02/23 03:15:02;;;;;;;0.85;0.70;;;5.20;99.90;;;;;;5046403;28;20069;-77
2024/02/23 03:17:29;;;;;;;1.02;0.38;;;5.20;99.90;;;;;;5045771;28;20049;-77
2024/02/23 03:19:57;;;;;;;0.40;0.28;;;5.20;99.90;;;;;;5046197;28;20045;-78
2024/02/23 03:22:24;;;;;;;1.33;1.23;;;5.30;99.90;;;;;;5028253;28;20147;-78
2024/02/23 03:24:51;;;;;;;0.57;0.40;;;5.30;99.90;;;;;;5045630;28;20041;-77
2024/02/23 03:27:19;;;;;;;0.30;0.30;;;5.30;99.90;;;;;;5042940;28;20723;-77
2024/02/23 03:29:46;;;;;;;1.02;0.50;;;5.30;99.90;;;;;;5028101;28;20145;-78
2024/02/23 03:32:13;;;;;;;0.35;0.35;;;5.30;99.90;;;;;;5040511;28;20154;-77
2024/02/23 03:34:40;;;;;;;0.45;0.45;;;5.30;99.90;;;;;;5045259;28;20114;-77
2024/02/23 03:37:07;;;;;;;0.40;0.40;;;5.30;99.90;;;;;;5034840;28;20055;-78
2024/02/23 03:39:36;;;;;;;0.73;0.38;;;5.30;99.90;;;;;;5044259;28;20063;-77
2024/02/23 03:42:03;;;;;;;0.40;0.40;;;5.20;99.90;;;;;;5043752;28;20056;-78
2024/02/23 03:44:31;;;;;;;0.43;0.38;;;5.10;99.90;;;;;;5045195;28;20045;-77
2024/02/23 03:46:58;;;;;;;0.40;0.40;;;5.10;99.90;;;;;;5045679;28;20136;-78
2024/02/23 03:49:25;;;;;;;0.30;0.30;;;5.10;99.90;;;;;;5011877;28;20048;-77
2024/02/23 03:51:52;;;;;;;0.70;0.30;;;5.10;99.90;;;;;;5027561;28;20057;-77
2024/02/23 03:54:19;;;;;;;1.10;0.40;;;5.10;99.90;;;;;;5023675;28;20479;-77
2024/02/23 03:56:46;;;;;;;1.20;0.65;;;5.10;99.90;;;;;;5029651;28;20045;-78
2024/02/23 03:59:12;;;;;;;1.23;1.13;;;5.10;99.90;;;;;;5044623;28;20655;-77
2024/02/23 04:01:39;;;;;;;0.55;0.50;;;5.10;99.90;;;;;;5043938;28;20045;-77
2024/02/23 04:04:06;;;;;;;0.73;0.60;;;5.00;99.90;;;;;;5043793;28;20060;-78
2024/02/23 04:06:34;;;;;;;1.17;0.98;;;5.00;99.90;;;;;;5043945;28;20052;-77
2024/02/23 04:09:01;;;;;;;0.35;0.35;;;5.00;99.90;;;;;;5026919;28;20520;-77
2024/02/23 04:11:28;;;;;;;0.30;0.30;;;5.10;99.90;;;;;;5042231;28;20060;-78
2024/02/23 04:13:55;;;;;;;0.25;0.22;;;5.00;99.90;;;;;;5027159;28;20064;-78
2024/02/23 04:16:25;;;;;;;0.50;0.50;;;5.10;99.90;;;;;;5043889;28;20052;-77
2024/02/23 04:18:53;;;;;;;0.75;0.43;;;5.10;99.90;;;;;;5043965;28;20045;-78
2024/02/23 04:21:20;;;;;;;1.45;0.70;;;5.10;99.90;;;;;;5026629;28;20053;-78
2024/02/23 04:23:47;;;;;;;0.30;0.30;;;5.20;99.90;;;;;;5043188;28;20049;-77
2024/02/23 04:26:14;;;;;;;0.65;0.40;;;5.20;99.90;;;;;;5010190;28;20045;-78
2024/02/23 04:28:41;;;;;;;0.50;0.40;;;5.30;99.90;;;;;;5043470;28;20049;-77
2024/02/23 04:31:08;;;;;;;0.40;0.40;;;5.30;99.90;;;;;;5043498;28;20048;-77
2024/02/23 04:33:36;;;;;;;0.60;0.57;;;5.40;99.90;;;;;;5044253;28;20049;-77
2024/02/23 04:36:03;;;;;;;0.40;0.40;;;5.40;99.90;;;;;;5026317;28;20056;-78
2024/02/23 04:38:31;;;;;;;0.90;0.40;;;5.50;99.90;;;;;;5044356;28;20064;-77
2024/02/23 04:40:58;;;;;;;0.47;0.30;;;5.60;99.90;;;;;;5021762;28;20076;-77
2024/02/23 04:43:26;;;;;;;0.70;0.40;;;5.60;99.90;;;;;;5017981;28;20754;-77
2024/02/23 04:45:52;;;;;;;0.65;0.38;;;5.70;99.90;;;;;;5026842;28;20446;-78
2024/02/23 04:48:19;;;;;;;0.40;0.40;;;5.70;99.90;;;;;;5022952;28;20335;-78
2024/02/23 04:50:47;;;;;;;0.40;0.22;;;5.70;99.90;;;;;;5042539;28;20052;-78
2024/02/23 04:53:13;;;;;;;0.30;0.30;;;5.80;99.90;;;;;;5026248;28;20469;-77
2024/02/23 04:55:41;;;;;;;0.28;0.20;;;5.80;99.90;;;;;;5010005;28;20375;-78
2024/02/23 04:58:08;;;;;;;0.75;0.47;;;5.80;99.90;;;;;;5022497;28;20053;-78
2024/02/23 05:00:35;;;;;;;1.25;0.40;;;5.80;99.90;;;;;;5034821;28;20110;-77
2024/02/23 05:03:03;;;;;;;1.17;0.45;;;5.90;99.90;;;;;;5043424;28;20045;-77
2024/02/23 05:05:31;;;;;;;0.40;0.35;;;5.90;99.90;;;;;;5043162;28;20128;-77
2024/02/23 05:07:59;;;;;;;0.47;0.45;;;5.90;99.90;;;;;;5026159;28;20070;-77
2024/02/23 05:10:26;;;;;;;0.50;0.38;;;6.00;99.90;;;;;;5032295;28;20565;-77
2024/02/23 05:12:53;;;;;;;0.57;0.40;;;6.00;99.90;;;;;;5042068;28;20135;-77
2024/02/23 05:15:20;;;;;;;1.17;0.60;;;6.00;99.90;;;;;;5026064;28;20357;-77
2024/02/23 05:17:48;;;;;;;0.95;0.50;;;6.00;99.90;;;;;;5040637;28;20491;-78
2024/02/23 05:20:15;;;;;;;0.43;0.40;;;6.00;99.90;;;;;;5009826;28;20511;-77
2024/02/23 05:22:42;;;;;;;0.50;0.40;;;6.00;99.90;;;;;;5027477;28;20433;-77
2024/02/23 05:25:09;;;;;;;1.38;0.63;;;6.00;99.90;;;;;;5025538;28;20080;-79
2024/02/23 05:27:36;;;;;;;0.80;0.30;;;6.00;99.90;;;;;;5041073;28;20087;-77
2024/02/23 05:30:03;;;;;;;0.73;0.50;;;6.00;99.90;;;;;;5042693;28;20487;-77
2024/02/23 05:32:30;;;;;;;0.75;0.50;;;6.00;99.90;;;;;;5025936;28;20076;-76
2024/02/23 05:34:57;;;;;;;1.58;0.45;;;6.00;99.90;;;;;;5041789;28;20418;-77
2024/02/23 05:37:26;;;;;;;0.73;0.47;;;6.00;99.90;;;;;;5041563;28;20509;-78
2024/02/23 05:39:54;;;;;;;0.63;0.30;;;6.00;99.90;;;;;;5041552;28;20519;-78
2024/02/23 05:42:21;;;;;;;0.40;0.40;;;6.00;99.90;;;;;;5041603;28;20048;-78
2024/02/23 05:44:48;;;;;;;1.38;0.50;;;5.90;99.90;;;;;;5043562;28;20136;-78
2024/02/23 05:47:15;;;;;;;0.75;0.57;;;5.90;99.90;;;;;;5025452;28;20041;-78
2024/02/23 05:49:42;;;;;;;1.13;0.40;;;5.90;99.90;;;;;;5025138;28;20140;-77
2024/02/23 05:52:09;;;;;;;0.80;0.40;;;5.80;99.90;;;;;;5024832;28;20128;-77
2024/02/23 05:54:36;;;;;;;0.63;0.20;;;5.80;99.90;;;;;;5025397;28;20110;-78
2024/02/23 05:57:03;;;;;;;0.57;0.38;;;5.70;99.90;;;;;;5040200;28;20044;-78
2024/02/23 05:59:30;;;;;;;0.50;0.40;;;5.60;99.90;;;;;;5025330;28;20136;-77
2024/02/23 06:01:56;;;;;;;0.70;0.50;;;5.60;99.90;;;;;;5042029;28;20060;-77
2024/02/23 06:04:24;;;;;;;1.42;0.60;;;5.50;99.90;;;;;;5023147;28;20140;-78
2024/02/23 06:06:51;;;;;;;1.27;0.45;;;5.50;99.90;;;;;;5028480;28;20828;-78
2024/02/23 06:09:18;;;;;;;0.57;0.50;;;5.50;99.90;;;;;;5039601;28;20060;-77
2024/02/23 06:11:46;;;;;;;0.65;0.40;;;5.40;99.90;;;;;;5039574;28;20509;-77
2024/02/23 06:14:13;;;;;;;0.95;0.60;;;5.40;99.90;;;;;;5039303;28;20144;-78
2024/02/23 06:16:40;;;;;;;0.50;0.50;;;5.30;99.90;;;;;;5039487;28;20056;-78
2024/02/23 06:19:08;;;;;;;0.40;0.40;;;5.30;99.90;;;;;;5023654;28;20068;-78
2024/02/23 06:21:35;;;;;;;0.57;0.40;;;5.30;99.90;;;;;;5041087;28;20436;-78
2024/02/23 06:24:02;;;;;;;0.32;0.32;;;5.30;99.90;;;;;;5022489;28;20049;-78
2024/02/23 06:26:29;;;;;;;0.80;0.52;;;5.20;99.90;;;;;;5038383;28;20076;-77
2024/02/23 06:28:56;;;;;;;0.90;0.43;;;5.20;99.90;;;;;;5039356;28;20059;-77
2024/02/23 06:31:23;;;;;;;0.60;0.30;;;5.10;99.90;;;;;;5022723;28;20092;-78
2024/02/23 06:33:51;;;;;;;0.43;0.35;;;5.10;99.90;;;;;;5039401;28;20052;-79
2024/02/23 06:36:18;;;;;;;0.65;0.50;;;5.10;99.90;;;;;;5040238;28;20092;-79
2024/02/23 06:38:45;;;;;;;0.40;0.40;;;5.10;99.90;;;;;;5038565;28;20058;-80
2024/02/23 06:41:12;;;;;;;0.52;0.40;;;5.10;99.90;;;;;;5004864;28;20052;-78
2024/02/23 06:43:40;;;;;;;1.02;0.60;;;5.10;99.90;;;;;;5017491;28;20092;-78
2024/02/23 06:46:08;;;;;;;0.50;0.50;;;5.00;99.90;;;;;;5020078;28;20503;-78
2024/02/23 06:48:36;;;;;;;0.45;0.43;;;5.00;99.90;;;;;;5034068;28;20053;-79
2024/02/23 06:51:04;;;;;;;1.08;0.57;;;5.00;99.90;;;;;;5013619;28;20041;-78
2024/02/23 06:53:31;;;;;;;0.52;0.32;;;5.00;99.90;;;;;;4997150;28;20052;-78
2024/02/23 06:55:59;;;;;;;0.77;0.38;;;5.00;99.90;;;;;;5011121;28;20064;-79
2024/02/23 06:58:26;;;;;;;0.40;0.40;;;5.00;99.90;;;;;;5010053;28;20046;-78
2024/02/23 07:00:53;;;;;;;2.17;0.70;;;5.00;99.90;;;;;;5028675;28;20040;-77
2024/02/23 07:03:20;;;;;;;0.80;0.47;;;5.00;99.90;;;;;;5025518;28;20538;-79
2024/02/23 07:05:48;;;;;;;1.27;0.50;;;5.00;99.90;;;;;;5023354;28;20527;-78
2024/02/23 07:08:15;;;;;;;1.45;0.60;;;4.90;99.90;;;;;;5028283;28;20128;-78
2024/02/23 07:10:42;;;;;;;0.30;0.30;;;5.00;99.90;;;;;;5026811;28;20057;-79
2024/02/23 07:13:10;;;;;;;0.40;0.40;;;4.90;99.90;;;;;;5022131;28;20037;-78
2024/02/23 07:15:37;;;;;;;0.30;0.30;;;4.90;99.90;;;;;;5025855;28;20068;-78
2024/02/23 07:18:04;;;;;;;1.83;0.43;;;4.90;99.90;;;;;;5027002;28;20576;-78
2024/02/23 07:20:31;;;;;;;0.90;0.47;;;4.90;99.90;;;;;;5026076;28;20507;-78
2024/02/23 07:22:58;;;;;;;0.32;0.30;;;5.00;99.90;;;;;;5032249;28;20098;-78
2024/02/23 07:25:25;;;;;;;0.40;0.40;;;4.90;99.90;;;;;;5027777;28;20072;-78
2024/02/23 07:27:52;;;;;;;0.28;0.22;;;5.00;99.90;;;;;;5027118;28;20049;-78
2024/02/23 07:30:19;;;;;;;0.63;0.40;;;5.00;99.90;;;;;;5012916;28;20053;-78
2024/02/23 07:32:46;;;;;;;0.30;0.30;;;5.00;99.90;;;;;;4999999;28;20060;-78
2024/02/23 07:35:18;;;;;;;0.35;0.35;;;5.00;99.90;;;;;;5025414;28;20065;-78
2024/02/23 07:37:46;;;;;;;0.40;0.40;;;5.00;99.90;;;;;;5022162;28;20127;-77
2024/02/23 07:40:13;;;;;;;0.40;0.40;;;5.00;99.90;;;;;;5032768;28;20053;-77
2024/02/23 07:42:44;;;;;;;0.50;0.50;;;5.00;99.90;;;;;;5038278;28;20076;-79
2024/02/23 07:45:11;;;;;;;0.40;0.40;;;5.00;99.90;;;;;;5017417;28;20049;-79
2024/02/23 07:47:38;;;;;;;1.20;0.57;;;5.00;99.90;;;;;;5016530;28;20160;-78
2024/02/23 07:50:06;;;;;;;1.10;0.57;;;5.00;99.90;;;;;;5012193;28;20048;-79
2024/02/23 07:52:33;;;;;;;0.60;0.60;;;5.00;99.90;;;;;;5030622;28;20223;-79
2024/02/23 07:55:02;;;;;;;0.40;0.40;;;5.10;99.90;;;;;;5028370;28;20136;-78
2024/02/23 07:57:31;;;;;;;0.40;0.40;;;5.10;99.90;;;;;;5010717;28;20152;-79
2024/02/23 07:59:58;;;;;;;1.23;0.68;;;5.10;99.90;;;;;;5039316;28;20060;-78
2024/02/23 08:02:24;;;;;;;0.68;0.40;;;5.20;99.90;;;;;;5030428;28;20049;-78
2024/02/23 08:04:52;;;;;;;1.58;0.60;;;5.20;99.90;;;;;;5041735;28;20064;-78
2024/02/23 08:07:19;;;;;;;0.52;0.40;;;5.20;99.90;;;;;;5021487;28;20045;-79
2024/02/23 08:09:46;;;;;;;0.50;0.40;;;5.30;99.90;;;;;;5030875;28;20063;-77
2024/02/23 08:12:13;;;;;;;0.40;0.40;;;5.30;99.90;;;;;;5032657;28;20563;-79
2024/02/23 08:14:42;;;;;;;0.30;0.30;;;5.40;99.90;;;;;;5032044;28;20049;-78
2024/02/23 08:17:10;;;;;;;1.08;0.30;;;5.40;99.90;;;;;;5033039;28;20388;-78
2024/02/23 08:19:37;;;;;;;0.47;0.40;;;5.40;99.90;;;;;;5011783;28;20073;-78
2024/02/23 08:22:04;;;;;;;0.40;0.40;;;5.50;99.90;;;;;;5041182;28;20063;-79
2024/02/23 08:24:31;;;;;;;0.60;0.60;;;5.50;99.90;;;;;;5020901;28;20088;-78
2024/02/23 08:26:58;;;;;;;0.20;0.20;;;5.60;99.90;;;;;;5027467;28;20132;-78
2024/02/23 08:29:26;;;;;;;0.30;0.30;;;5.60;99.90;;;;;;5020528;28;20126;-78
2024/02/23 08:31:53;;;;;;;0.50;0.47;;;5.60;99.90;;;;;;5013127;28;20140;-78
2024/02/23 08:34:20;;;;;;;0.68;0.40;;;5.70;99.90;;;;;;5027350;28;20153;-78
2024/02/23 08:36:47;;;;;;;0.40;0.40;;;5.70;99.90;;;;;;5026339;28;20074;-78
2024/02/23 08:39:14;;;;;;;0.40;0.40;;;5.80;99.90;;;;;;5019883;28;20197;-77
2024/02/23 08:41:41;;;;;;;1.00;0.43;;;5.80;99.90;;;;;;5016701;28;20270;-77
2024/02/23 08:44:08;;;;;;;0.55;0.55;;;5.80;99.90;;;;;;4996399;28;20133;-77
2024/02/23 08:46:35;;;;;;;0.40;0.40;;;5.80;99.90;;;;;;5024773;28;20495;-77
2024/02/23 08:49:01;;;;;;;1.13;0.60;;;5.90;99.90;;;;;;5028531;28;20087;-78
2024/02/23 08:51:29;;;;;;;0.63;0.43;;;5.90;99.90;;;;;;5003741;28;20528;-78
2024/02/23 08:53:57;;;;;;;0.98;0.60;;;6.00;99.90;;;;;;5023942;28;20135;-78
2024/02/23 08:56:27;;;;;;;0.75;0.60;;;6.10;99.90;;;;;;5010181;28;20144;-76
2024/02/23 08:58:54;;;;;;;1.30;0.52;;;6.10;99.90;;;;;;5024747;28;20053;-78
2024/02/23 09:01:21;;;;;;;0.50;0.50;;;6.10;99.90;;;;;;5032643;28;20050;-77
2024/02/23 09:03:48;;;;;;;1.15;0.60;;;6.20;99.90;;;;;;5002392;28;20041;-76
2024/02/23 09:06:14;;;;;;;1.23;0.40;;;6.30;99.90;;;;;;5040719;28;20063;-77
2024/02/23 09:08:42;;;;;;;0.63;0.45;;;6.30;99.90;;;;;;5037222;28;20114;-76
2024/02/23 09:11:11;;;;;;;1.33;0.50;;;6.40;99.90;;;;;;5016626;28;20053;-75
2024/02/23 09:13:38;;;;;;;0.73;0.55;;;6.50;99.90;;;;;;5010833;28;20128;-76
2024/02/23 09:16:06;;;;;;;0.70;0.40;;;6.50;99.90;;;;;;5007597;28;20045;-79
2024/02/23 09:18:32;;;;;;;1.35;0.57;;;6.60;99.90;;;;;;5016751;28;20053;-79
2024/02/23 09:20:59;;;;;;;0.73;0.55;;;6.60;99.90;;;;;;5020197;28;20492;-79
2024/02/23 09:23:26;;;;;;;2.38;0.50;;;6.60;99.90;;;;;;5037907;28;20053;-79
2024/02/23 09:25:54;;;;;;;0.82;0.60;;;6.70;99.90;;;;;;5033597;28;20110;-77
2024/02/23 09:28:20;;;;;;;0.95;0.60;;;6.70;99.90;;;;;;5016514;28;20414;-78
2024/02/23 09:30:47;;;;;;;0.57;0.50;;;6.80;99.90;;;;;;5027653;28;20132;-77
2024/02/23 09:33:14;;;;;;;1.00;0.60;;;6.80;99.90;;;;;;5030302;28;20187;-78
2024/02/23 09:35:41;;;;;;;2.75;0.55;;;6.80;99.90;;;;;;5000977;28;20064;-84
2024/02/23 09:38:08;;;;;;;0.47;0.47;;;6.90;99.90;;;;;;5022593;28;20060;-81
2024/02/23 09:40:35;;;;;;;0.38;0.38;;;7.00;99.90;;;;;;5012730;28;20049;-78
2024/02/23 09:43:02;;;;;;;0.88;0.50;;;7.00;99.90;;;;;;5027042;28;20503;-78
2024/02/23 09:45:30;;;;;;;1.38;0.50;;;7.00;99.90;;;;;;5001946;28;20057;-76
2024/02/23 09:47:57;;;;;;;1.02;0.68;;;7.10;99.90;;;;;;4995082;28;20045;-84
2024/02/23 09:50:25;;;;;;;0.80;0.70;;;7.10;99.90;;;;;;5027797;28;20048;-82
2024/02/23 09:52:54;;;;;;;0.70;0.52;;;7.20;99.90;;;;;;5029283;28;20410;-88
2024/02/23 09:55:24;;;;;;;0.77;0.70;;;7.30;99.90;;;;;;5036260;28;20045;-81
2024/02/23 09:57:54;;;;;;;1.20;0.80;;;7.30;99.90;;;;;;5038170;28;20048;-81
2024/02/23 10:00:21;;;;;;;0.50;0.50;;;7.40;99.90;;;;;;5023074;28;20045;-80
2024/02/23 10:02:48;;;;;;;0.45;0.45;;;7.50;99.90;;;;;;4998928;28;20125;-80
2024/02/23 10:05:15;;;;;;;1.10;0.63;;;7.50;99.90;;;;;;5023071;28;20049;-80
2024/02/23 10:07:44;;;;;;;0.70;0.50;;;7.50;99.90;;;;;;5013606;28;20432;-81
2024/02/23 10:10:11;;;;;;;0.43;0.43;;;7.60;99.90;;;;;;5013063;28;20419;-80
2024/02/23 10:12:39;;;;;;;2.70;0.88;;;7.70;99.90;;;;;;5016251;28;20050;-81
2024/02/23 10:15:06;;;;;;;2.22;0.77;;;7.70;99.90;;;;;;5018755;28;20083;-81
2024/02/23 10:17:34;;;;;;;1.88;0.63;;;7.80;99.90;;;;;;5022961;28;20136;-83
2024/02/23 10:20:05;;;;;;;0.60;0.60;;;7.80;99.90;;;;;;5019275;28;20099;-81
2024/02/23 10:22:32;;;;;;;0.90;0.70;;;7.90;99.90;;;;;;5025606;28;20061;-81
2024/02/23 10:24:59;;;;;;;1.35;0.63;;;8.00;99.90;;;;;;5010764;28;20053;-81
2024/02/23 10:27:27;;;;;;;1.05;0.70;;;8.10;99.90;;;;;;5018528;28;20698;-81
2024/02/23 10:29:54;;;;;;;2.15;0.85;;;8.20;99.90;;;;;;5024102;28;20045;-79
2024/02/23 10:32:22;;;;;;;0.88;0.65;;;8.30;99.90;;;;;;5034992;28;20045;-79
2024/02/23 10:34:50;;;;;;;0.90;0.52;;;8.40;99.90;;;;;;5023366;28;20041;-81
2024/02/23 10:37:18;;;;;;;0.40;0.40;;;8.50;99.90;;;;;;5005923;28;20419;-81
2024/02/23 10:39:45;;;;;;;1.20;0.82;;;8.50;99.90;;;;;;5015713;28;20076;-81
2024/02/23 10:42:12;;;;;;;1.50;0.70;;;8.60;99.90;;;;;;5007047;28;20050;-81
2024/02/23 10:44:39;;;;;;;1.30;0.65;;;8.50;99.90;;;;;;5039057;28;20474;-82
2024/02/23 10:47:06;;;;;;;0.95;0.82;;;8.60;99.90;;;;;;5016409;28;20100;-81
2024/02/23 10:49:34;;;;;;;1.83;1.38;;;8.60;99.90;;;;;;5023719;28;20526;-81
2024/02/23 10:52:02;;;;;;;1.13;0.80;;;8.60;99.90;;;;;;5024955;28;20558;-82
2024/02/23 10:54:30;;;;;;;1.10;0.90;;;8.60;99.90;;;;;;5035768;28;20084;-81
2024/02/23 10:56:57;;;;;;;2.60;0.73;;;8.70;99.90;;;;;;4994558;28;20099;-82
2024/02/23 10:59:24;;;;;;;2.45;1.00;;;8.70;99.90;;;;;;5001261;28;20050;-82
2024/02/23 11:01:52;;;;;;;1.55;0.70;;;8.70;99.90;;;;;;5037908;28;20132;-81
2024/02/23 11:04:22;;;;;;;1.33;0.60;;;8.80;99.90;;;;;;5014920;28;20482;-82
2024/02/23 11:06:53;;;;;;;1.33;0.80;;;8.90;99.90;;;;;;5030320;28;20056;-81
2024/02/23 11:09:26;;;;;;;0.70;0.60;;;8.90;99.90;;;;;;5032827;28;20231;-80
2024/02/23 11:11:56;;;;;;;1.17;0.65;;;8.90;99.90;;;;;;5024560;28;20106;-81
2024/02/23 11:14:51;;;;;;;1.02;0.60;;;9.00;99.90;;;;;;5028335;28;20560;-80
2024/02/23 11:17:22;;;;;;;1.58;1.08;;;9.20;99.90;;;;;;5044127;28;20053;-81
2024/02/23 11:19:50;;;;;;;1.17;0.88;;;9.20;99.90;;;;;;5030227;28;20128;-81
2024/02/23 11:22:28;;;;;;;0.82;0.57;;;9.20;99.90;;;;;;5046795;28;20147;-80
2024/02/23 11:25:10;;;;;;;1.85;0.80;;;9.20;99.90;;;;;;5024710;28;20063;-87
2024/02/23 11:27:38;;;;;;;2.67;0.80;;;9.20;99.90;;;;;;5018043;28;20072;-82
2024/02/23 11:30:10;;;;;;;1.63;0.80;;;9.10;99.90;;;;;;5007601;28;20095;-82
2024/02/23 11:32:48;;;;;;;1.25;0.70;;;9.20;99.90;;;;;;5014787;28;20052;-81
2024/02/23 11:35:16;;;;;;;2.63;0.80;;;9.20;99.90;;;;;;5000728;28;20083;-83
2024/02/23 11:38:04;;;;;;;1.08;0.57;;;9.20;99.90;;;;;;5020512;28;20049;-81
2024/02/23 11:40:33;;;;;;;1.30;0.63;;;9.30;99.90;;;;;;5020112;28;20057;-82
2024/02/23 11:43:00;;;;;;;1.20;0.70;;;9.40;99.90;;;;;;5008817;28;20049;-81
2024/02/23 11:45:30;;;;;;;1.00;0.50;;;9.60;99.90;;;;;;5027330;28;20053;-82
2024/02/23 11:47:59;;;;;;;1.08;0.55;;;9.60;99.90;;;;;;5026114;28;20050;-81
2024/02/23 11:50:26;;;;;;;1.45;0.82;;;9.90;99.90;;;;;;5021440;28;20049;-82
2024/02/23 11:52:54;;;;;;;1.70;0.77;;;10.10;99.90;;;;;;5012766;28;20049;-81
2024/02/23 11:55:24;;;;;;;1.40;0.68;;;10.40;99.90;;;;;;5024957;28;20124;-80
2024/02/23 11:57:53;;;;;;;1.45;0.93;;;10.70;99.90;;;;;;5009310;28;20099;-89
2024/02/23 12:00:35;;;;;;;1.23;0.73;;;11.00;99.90;;;;;;5025805;28;20067;-80
2024/02/23 12:03:02;;;;;;;1.92;0.80;;;11.40;99.90;;;;;;5043977;28;20049;-80
2024/02/23 12:05:29;;;;;;;0.85;0.85;;;11.60;99.90;;;;;;5034374;28;20052;-82
2024/02/23 12:07:58;;;;;;;1.73;0.75;;;11.80;99.90;;;;;;5021392;28;20045;-82
2024/02/23 12:10:26;;;;;;;1.42;1.00;;;11.90;99.90;;;;;;5016616;28;20384;-83
2024/02/23 12:12:54;;;;;;;1.17;0.80;;;11.90;99.90;;;;;;5001897;28;20434;-83
2024/02/23 12:15:21;;;;;;;1.23;0.70;;;12.00;99.90;;;;;;5023908;28;20098;-83
2024/02/23 12:17:49;;;;;;;1.60;0.93;;;11.90;99.90;;;;;;5035931;28;20038;-82
2024/02/23 12:20:16;;;;;;;2.38;0.70;;;11.60;99.90;;;;;;5030638;28;20053;-83
2024/02/23 12:22:46;;;;;;;1.90;0.80;;;11.50;99.90;;;;;;5025191;28;20053;-81
2024/02/23 12:25:14;;;;;;;1.38;0.70;;;11.40;99.90;;;;;;5038813;28;20580;-81
2024/02/23 12:27:43;;;;;;;1.27;0.50;;;11.20;99.90;;;;;;4998500;28;20115;-82
2024/02/23 12:30:17;;;;;;;1.08;0.80;;;11.30;99.90;;;;;;5019106;28;20137;-81
2024/02/23 12:32:44;;;;;;;0.85;0.70;;;11.10;99.90;;;;;;5040471;28;20141;-81
2024/02/23 12:35:12;;;;;;;1.20;0.65;;;11.20;99.90;;;;;;5017163;28;20646;-83
2024/02/23 12:37:41;;;;;;;1.20;0.63;;;11.20;99.90;;;;;;5013540;28;20052;-83
2024/02/23 12:40:11;;;;;;;0.77;0.50;;;11.20;99.90;;;;;;5010789;28;20527;-82
2024/02/23 12:42:38;;;;;;;0.43;0.43;;;11.30;99.90;;;;;;4994201;28;20049;-80
2024/02/23 12:45:05;;;;;;;0.52;0.50;;;11.40;99.90;;;;;;5016628;28;20459;-81
2024/02/23 12:47:32;;;;;;;1.95;0.70;;;11.20;99.90;;;;;;5001241;28;20660;-82
2024/02/23 12:49:59;;;;;;;1.35;0.75;;;11.10;99.90;;;;;;5012820;28;20663;-81
2024/02/23 12:52:26;;;;;;;0.77;0.70;;;11.20;99.90;;;;;;5027063;28;20130;-82
2024/02/23 12:54:53;;;;;;;1.00;0.60;;;11.20;99.90;;;;;;5005109;28;20507;-81
2024/02/23 12:57:21;;;;;;;0.95;0.70;;;11.20;99.90;;;;;;5025850;28;20293;-83